• Join FlightAware (Why Join?)
  • Login
  • US Flag 
Gobble Gobble! 
12:54AM EST


 

Airport Tracker/Info


-or-


 

Live Flight TrackerFlight Track Log ✈ N99AZ ✈ 06-Sep-2013 ✈ KCCR - KSCK

Flight Track Log - Related Links

Times and Time Zones

All times are in EDT time to prevent confusion due to time zone crossing. See the N99AZ flight status page for this flight to view local times or setup timezone preferences in your user account.

Time Position Orientation Groundspeed Altitude Reporting Facility
EDT Latitude Longitude Course Direction KTS MPH feet Rate Location/Type
01:42PM 37.9583 -122.0736 70° East 76 87 900  Level Oakland Center
01:43PM 37.9644 -122.0525 70° East 89 102 1,500 600 Climbing Oakland Center
01:44PM 37.9844 -122.0511 North 77 89 2,200 600 Climbing Oakland Center
01:45PM 38.0056 -122.0481 North 75 86 2,800 540 Climbing Oakland Center
01:46PM 38.0269 -122.0453 North 76 87 3,400 480 Climbing Oakland Center
01:47PM 38.0486 -122.0381 15° North 81 93 3,800 420 Climbing Oakland Center
01:48PM 38.0472 -122.0042 93° East 93 107 4,300 480 Climbing Oakland Center
01:49PM 38.0483 -121.9689 88° East 99 114 4,800 360 Climbing Oakland Center
01:50PM 38.0497 -121.9239 88° East 104 120 5,100 60 Climbing Oakland Center
01:51PM 38.0522 -121.8758 86° East 126 145 5,000 -60 Descending Oakland Center
01:52PM 38.0528 -121.8272 89° East 135 155 5,000 -60 Level Oakland Center
01:53PM 38.0542 -121.7775 88° East 139 160 4,900 -60 Descending Oakland Center
01:54PM 38.0561 -121.7275 87° East 142 163 4,900  Level Oakland Center
01:55PM 38.0575 -121.6775 88° East 142 163 4,900  Level Oakland Center
01:56PM 38.0467 -121.6308 106° East 137 158 4,900  Level Oakland Center
01:57PM 38.0314 -121.5761 110° East 138 159 4,900  Level Oakland Center
01:58PM 38.0186 -121.5300 109° East 139 160 4,900  Level Oakland Center
01:59PM 38.0056 -121.4831 109° East 139 160 5,000 -60 Climbing Oakland Center
02:01PM 37.9914 -121.4408 113° Southeast 133 153 4,800 -300 Descending Oakland Center
02:02PM 37.9708 -121.3978 121° Southeast 139 160 4,500 -360 Descending Oakland Center
02:03PM 37.9500 -121.3333 112° Southeast 145 167 4,000 -300 Descending Northern Cal TRACON
02:04PM 37.9167 -121.3167 158° South 131 151 3,900 -60 Descending Northern Cal TRACON
02:05PM 37.8833 -121.2833 142° Southeast 130 150 3,900  Level Northern Cal TRACON
02:06PM 37.8500 -121.2667 158° South 131 151 3,900  Level Northern Cal TRACON
02:07PM 37.8333 -121.2333 122° Southeast 131 151 4,000 -180 Climbing Northern Cal TRACON
02:09PM 37.7892 -121.1578 126° Southeast 142 163 3,400 -420 Descending Oakland Center
02:10PM 37.7681 -121.1142 121° Southeast 146 168 2,900 -480 Descending Oakland Center
02:11PM 37.7822 -121.0681 69° East 141 162 2,500 -480 Descending Oakland Center
02:12PM 37.8061 -121.0386 44° Northeast 147 169 2,000 -300 Descending Oakland Center
02:13PM 37.8125 -121.0756 282° West 125 144 2,000 -180 Level Oakland Center
02:14PM 37.8192 -121.1169 282° West 110 127 1,700 -420 Descending Oakland Center
02:15PM 37.8347 -121.1414 309° West 96 110 1,200 -300 Descending Oakland Center
02:16PM 37.8494 -121.1656 308° West 91 105 1,100 -300 Descending Oakland Center
02:17PM 37.8667 -121.2000 302° West 97 112 600 -480 Descending Northern Cal TRACON
02:18PM 37.8833 -121.2167 322° Northwest 96 110 200 120 Descending Northern Cal TRACON
02:19PM 37.9000 -121.2500 302° West 100 115 900 600 Climbing Northern Cal TRACON
02:20PM 37.9333 -121.2333 22° Northeast 101 116 1,400 540 Climbing Northern Cal TRACON
02:21PM 37.9500 -121.2333 360° North 94 108 2,000 480 Climbing Northern Cal TRACON
02:22PM 37.9667 -121.2500 322° Northwest 89 102 2,400 480 Climbing Northern Cal TRACON
02:23PM 37.9833 -121.2667 322° Northwest 92 106 3,000 540 Climbing Northern Cal TRACON
02:24PM 38.0167 -121.2667 360° North 97 112 3,500 480 Climbing Northern Cal TRACON
02:25PM 38.0333 -121.2833 322° Northwest 96 110 4,000 180 Climbing Northern Cal TRACON
02:26PM 38.0000 -121.2667 158° South 119 137 4,000  Level Northern Cal TRACON
02:27PM 37.9667 -121.2500 158° South 132 152 4,000  Level Northern Cal TRACON
02:28PM 38.0000 -121.2333 22° Northeast 142 163 4,000  Level Northern Cal TRACON
02:29PM 38.0333 -121.2667 322° Northwest 132 152 4,000  Level Northern Cal TRACON
02:30PM 38.0500 -121.3000 302° West 132 152 4,000 -120 Level Northern Cal TRACON
02:31PM 38.0667 -121.3333 302° West 138 159 3,800 -240 Descending Northern Cal TRACON